Time;durP1;ratioP1;P1;durP2;ratioP2;P2;SDS_P1;SDS_P2;PMS_P1;PMS_P2;Temp;Humidity;BMP_temperature;BMP_pressure;BME280_temperature;BME280_humidity;BME280_pressure;Samples;Min_cycle;Max_cycle;Signal;HPM_P1;HPM_P2
2022/04/09 00:01:38;;;;;;;11.43;2.70;;;4.40;99.90;;;;;;5091364;28;20131;-65
2022/04/09 00:04:04;;;;;;;7.43;1.85;;;4.40;99.90;;;;;;5073494;28;20139;-65
2022/04/09 00:06:30;;;;;;;7.60;1.95;;;4.40;99.90;;;;;;5089784;28;20043;-64
2022/04/09 00:08:56;;;;;;;10.13;2.40;;;4.40;99.90;;;;;;5090190;28;20100;-64
2022/04/09 00:11:21;;;;;;;5.03;1.75;;;4.40;99.90;;;;;;5088915;28;20589;-65
2022/04/09 00:13:47;;;;;;;6.68;2.05;;;4.40;99.90;;;;;;5089925;28;20427;-64
2022/04/09 00:16:14;;;;;;;10.13;2.10;;;4.50;99.90;;;;;;5091234;28;20040;-65
2022/04/09 00:18:43;;;;;;;7.90;2.28;;;4.50;99.90;;;;;;5089711;28;20048;-65
2022/04/09 00:21:09;;;;;;;9.95;2.20;;;4.80;99.90;;;;;;5091010;28;20040;-66
2022/04/09 00:23:35;;;;;;;8.63;2.08;;;4.70;99.90;;;;;;5072974;28;20476;-65
2022/04/09 00:26:00;;;;;;;8.52;2.42;;;4.70;99.90;;;;;;5090888;28;20050;-66
2022/04/09 00:28:26;;;;;;;7.72;2.40;;;4.70;99.90;;;;;;5072033;28;20140;-65
2022/04/09 00:30:52;;;;;;;10.00;2.22;;;4.80;99.90;;;;;;5091114;28;20048;-65
2022/04/09 00:33:18;;;;;;;6.90;2.20;;;4.80;99.90;;;;;;5089705;28;20047;-71
2022/04/09 00:35:44;;;;;;;10.82;3.00;;;4.80;99.90;;;;;;5073056;28;20633;-65
2022/04/09 00:38:09;;;;;;;9.55;2.15;;;4.70;99.90;;;;;;5090051;28;20423;-65
2022/04/09 00:40:35;;;;;;;10.85;2.10;;;4.70;99.90;;;;;;5073162;28;20061;-64
2022/04/09 00:43:01;;;;;;;12.10;1.88;;;4.70;99.90;;;;;;5076180;28;20059;-67
2022/04/09 00:45:27;;;;;;;10.85;1.88;;;4.60;99.90;;;;;;5076597;28;20044;-64
2022/04/09 00:47:53;;;;;;;2.95;1.48;;;4.60;99.90;;;;;;5095181;28;20072;-64
2022/04/09 00:50:19;;;;;;;6.90;1.90;;;4.60;99.90;;;;;;5093948;28;20040;-64
2022/04/09 00:52:50;;;;;;;10.50;2.45;;;4.50;99.90;;;;;;5094761;28;20127;-64
2022/04/09 00:56:22;;;;;;;8.88;2.13;;;4.60;99.90;;;;;;5095107;28;20048;-64
2022/04/09 00:58:20;;;;;;;7.72;1.63;;;4.60;99.90;;;;;;5080389;28;20051;-63
2022/04/09 01:00:46;;;;;;;6.25;1.60;;;4.60;99.90;;;;;;5094698;28;20052;-64
2022/04/09 01:03:18;;;;;;;3.53;1.35;;;4.60;99.90;;;;;;5094995;28;20044;-64
2022/04/09 01:05:44;;;;;;;10.38;2.08;;;4.60;99.90;;;;;;5094164;28;20050;-63
2022/04/09 01:08:10;;;;;;;9.07;2.20;;;4.60;99.90;;;;;;5094680;28;20135;-64
2022/04/09 01:10:37;;;;;;;7.57;1.92;;;4.50;99.90;;;;;;5094434;28;20040;-64
2022/04/09 01:13:03;;;;;;;5.28;1.98;;;4.90;99.90;;;;;;5076841;28;20135;-63
2022/04/09 01:15:29;;;;;;;10.20;2.58;;;4.60;99.90;;;;;;5094295;28;20052;-65
2022/04/09 01:17:55;;;;;;;11.35;2.35;;;4.60;99.90;;;;;;5076486;28;20047;-64
2022/04/09 01:20:28;;;;;;;10.70;2.65;;;4.60;99.90;;;;;;5093379;28;20060;-64
2022/04/09 01:22:54;;;;;;;10.32;2.33;;;4.60;99.90;;;;;;5094727;28;20060;-64
2022/04/09 01:25:21;;;;;;;7.40;1.83;;;4.60;99.90;;;;;;5094145;28;20051;-64
2022/04/09 01:27:48;;;;;;;10.23;2.20;;;4.50;99.90;;;;;;5106283;28;20059;-65
2022/04/09 01:30:15;;;;;;;8.57;2.42;;;4.50;99.90;;;;;;5096518;28;20091;-64
2022/04/09 01:32:41;;;;;;;10.60;2.20;;;4.40;99.90;;;;;;5079185;28;20039;-65
2022/04/09 01:35:07;;;;;;;8.38;1.88;;;4.40;99.90;;;;;;5096566;28;20497;-64
2022/04/09 01:37:33;;;;;;;8.15;1.85;;;4.30;99.90;;;;;;5095794;28;20046;-64
2022/04/09 01:39:59;;;;;;;8.20;2.45;;;4.30;99.90;;;;;;5114679;28;20047;-65
2022/04/09 01:42:27;;;;;;;9.38;2.33;;;4.50;99.90;;;;;;5096512;28;20426;-64
2022/04/09 01:44:53;;;;;;;5.63;2.20;;;4.20;99.90;;;;;;5079595;28;20059;-64
2022/04/09 01:47:19;;;;;;;8.93;2.08;;;4.30;99.90;;;;;;5114198;28;20081;-64
2022/04/09 01:49:45;;;;;;;7.45;2.13;;;4.20;99.90;;;;;;5095988;28;20055;-65
2022/04/09 01:52:11;;;;;;;7.78;2.05;;;4.20;99.90;;;;;;5114078;28;20051;-64
2022/04/09 01:54:36;;;;;;;7.40;1.70;;;4.20;99.90;;;;;;5095927;28;20043;-65
2022/04/09 01:57:02;;;;;;;5.57;1.75;;;4.20;99.90;;;;;;5113871;28;20040;-65
2022/04/09 01:59:28;;;;;;;6.22;1.85;;;4.30;99.90;;;;;;5095796;28;20462;-69
2022/04/09 02:01:54;;;;;;;10.45;1.98;;;4.30;99.90;;;;;;5079071;28;20112;-66
2022/04/09 02:04:20;;;;;;;7.10;1.90;;;4.30;99.90;;;;;;5114507;28;20116;-63
2022/04/09 02:06:48;;;;;;;10.52;2.85;;;4.30;99.90;;;;;;5078798;28;20638;-63
2022/04/09 02:09:13;;;;;;;8.00;1.95;;;4.30;99.90;;;;;;5114002;28;20048;-64
2022/04/09 02:11:40;;;;;;;7.05;2.00;;;4.20;99.90;;;;;;5095454;28;20058;-65
2022/04/09 02:14:08;;;;;;;6.88;2.03;;;4.20;99.90;;;;;;5095794;28;20066;-64
2022/04/09 02:16:33;;;;;;;6.90;2.17;;;4.20;99.90;;;;;;5078517;28;20051;-69
2022/04/09 02:18:59;;;;;;;11.50;2.13;;;4.20;99.90;;;;;;5113726;28;20477;-64
2022/04/09 02:21:25;;;;;;;12.07;2.20;;;4.40;99.90;;;;;;5079181;28;20121;-64
2022/04/09 02:23:51;;;;;;;7.47;1.88;;;4.20;99.90;;;;;;5113415;28;20465;-64
2022/04/09 02:26:16;;;;;;;7.70;2.42;;;4.10;99.90;;;;;;5062327;28;20126;-63
2022/04/09 02:28:46;;;;;;;9.93;2.03;;;4.10;99.90;;;;;;5077328;28;20048;-65
2022/04/09 02:31:12;;;;;;;12.50;2.22;;;4.10;99.90;;;;;;5095940;28;20051;-65
2022/04/09 02:33:38;;;;;;;11.75;2.22;;;4.10;99.90;;;;;;5094872;28;20101;-64
2022/04/09 02:36:05;;;;;;;4.53;1.75;;;4.10;99.90;;;;;;5094906;28;20051;-64
2022/04/09 02:38:31;;;;;;;11.23;2.60;;;4.10;99.90;;;;;;5078093;28;20477;-65
2022/04/09 02:40:57;;;;;;;8.02;1.70;;;4.10;99.90;;;;;;5094675;28;20132;-67
2022/04/09 02:43:23;;;;;;;6.80;2.42;;;4.10;99.90;;;;;;5095267;28;20044;-65
2022/04/09 02:45:49;;;;;;;7.88;1.90;;;4.10;99.90;;;;;;5077837;28;20051;-65
2022/04/09 02:48:15;;;;;;;4.90;2.10;;;4.10;99.90;;;;;;5113278;28;20043;-64
2022/04/09 02:50:41;;;;;;;9.02;1.90;;;4.20;99.90;;;;;;5112373;28;20484;-64
2022/04/09 02:53:11;;;;;;;5.80;1.60;;;4.00;99.90;;;;;;5077910;28;20051;-65
2022/04/09 02:55:37;;;;;;;6.50;1.92;;;3.90;99.90;;;;;;5094628;28;20050;-70
2022/04/09 02:58:02;;;;;;;7.53;1.40;;;4.00;99.90;;;;;;5112904;28;20078;-68
2022/04/09 03:00:28;;;;;;;8.38;1.77;;;3.90;99.90;;;;;;5113150;28;20477;-65
2022/04/09 03:02:54;;;;;;;4.68;1.70;;;3.90;99.90;;;;;;5112139;28;20051;-65
2022/04/09 03:05:20;;;;;;;6.68;1.60;;;3.90;99.90;;;;;;5094367;28;20162;-64
2022/04/09 03:07:46;;;;;;;8.93;1.90;;;3.90;99.90;;;;;;5112511;28;20048;-64
2022/04/09 03:10:12;;;;;;;5.43;1.77;;;3.80;99.90;;;;;;5112942;28;20048;-64
2022/04/09 03:12:45;;;;;;;7.22;1.65;;;3.90;99.90;;;;;;5094420;28;20564;-70
2022/04/09 03:15:11;;;;;;;9.90;2.00;;;3.90;99.90;;;;;;5112802;28;20100;-66
2022/04/09 03:17:37;;;;;;;9.32;2.35;;;3.90;99.90;;;;;;5112483;28;20054;-65
2022/04/09 03:20:04;;;;;;;8.90;2.33;;;3.90;99.90;;;;;;5094102;28;20051;-64
2022/04/09 03:22:30;;;;;;;8.50;2.15;;;3.90;99.90;;;;;;5112550;28;20051;-65
2022/04/09 03:24:59;;;;;;;8.02;2.00;;;3.90;99.90;;;;;;5094120;28;20111;-63
2022/04/09 03:27:26;;;;;;;7.90;2.25;;;4.00;99.90;;;;;;5093728;28;20138;-65
2022/04/09 03:29:55;;;;;;;11.23;2.40;;;3.90;99.90;;;;;;5111923;28;20058;-65
2022/04/09 03:32:22;;;;;;;9.60;3.00;;;4.00;99.90;;;;;;5093954;28;20059;-64
2022/04/09 03:34:48;;;;;;;7.20;2.20;;;4.00;99.90;;;;;;5093884;28;20051;-64
2022/04/09 03:37:14;;;;;;;6.10;1.70;;;4.00;99.90;;;;;;5077163;28;20050;-65
2022/04/09 03:39:44;;;;;;;9.70;2.20;;;4.00;99.90;;;;;;5112320;28;20389;-68
2022/04/09 03:42:09;;;;;;;4.60;1.70;;;3.90;99.90;;;;;;5093987;28;20055;-64
2022/04/09 03:44:35;;;;;;;13.57;2.60;;;4.00;99.90;;;;;;5111884;28;20534;-65
2022/04/09 03:47:03;;;;;;;7.72;2.05;;;4.00;99.90;;;;;;5093416;28;20047;-66
2022/04/09 03:49:29;;;;;;;6.00;1.80;;;4.00;99.90;;;;;;5077236;28;20052;-63
2022/04/09 03:51:56;;;;;;;4.68;2.00;;;3.90;99.90;;;;;;5111686;28;20047;-64
2022/04/09 03:54:22;;;;;;;8.48;2.17;;;3.90;99.90;;;;;;5093871;28;20046;-64
2022/04/09 03:56:48;;;;;;;8.10;2.05;;;3.90;99.90;;;;;;5093465;28;20043;-64
2022/04/09 03:59:13;;;;;;;14.35;2.58;;;3.90;99.90;;;;;;5111997;28;20046;-64
2022/04/09 04:01:39;;;;;;;5.63;1.95;;;3.90;99.90;;;;;;5111810;28;20050;-64
2022/04/09 04:04:05;;;;;;;8.70;2.75;;;3.80;99.90;;;;;;5076642;28;20739;-64
2022/04/09 04:06:31;;;;;;;10.20;2.17;;;3.80;99.90;;;;;;5093962;28;20124;-63
2022/04/09 04:09:00;;;;;;;8.18;2.35;;;3.80;99.90;;;;;;5093481;28;20576;-65
2022/04/09 04:11:26;;;;;;;5.13;2.10;;;3.70;99.90;;;;;;5111798;28;20047;-65
2022/04/09 04:13:52;;;;;;;11.07;2.22;;;3.70;99.90;;;;;;5093320;28;20053;-63
2022/04/09 04:16:17;;;;;;;12.50;2.30;;;3.80;99.90;;;;;;5059324;28;20388;-64
2022/04/09 04:18:44;;;;;;;11.75;2.80;;;3.80;99.90;;;;;;5059991;28;20096;-66
2022/04/09 04:21:10;;;;;;;8.93;2.30;;;3.90;99.90;;;;;;5111278;28;20047;-66
2022/04/09 04:23:35;;;;;;;10.27;2.20;;;3.90;99.90;;;;;;5093685;28;20048;-65
2022/04/09 04:26:02;;;;;;;11.50;2.42;;;3.90;99.90;;;;;;5093065;28;20050;-64
2022/04/09 04:28:28;;;;;;;11.82;2.28;;;3.90;99.90;;;;;;5111690;28;20055;-64
2022/04/09 04:30:54;;;;;;;8.52;2.13;;;4.20;99.90;;;;;;5092835;28;20040;-65
2022/04/09 04:33:20;;;;;;;13.63;2.10;;;3.80;99.90;;;;;;5076278;28;20066;-63
2022/04/09 04:35:46;;;;;;;7.57;2.25;;;3.80;99.90;;;;;;5111618;28;20047;-66
2022/04/09 04:38:12;;;;;;;9.25;2.40;;;3.80;99.90;;;;;;5111183;28;20042;-64
2022/04/09 04:40:38;;;;;;;9.90;2.30;;;3.70;99.90;;;;;;5093272;28;20047;-65
2022/04/09 04:43:03;;;;;;;7.00;2.00;;;3.70;99.90;;;;;;5111060;28;20047;-64
2022/04/09 04:45:30;;;;;;;14.57;2.72;;;3.70;99.90;;;;;;5076478;28;20504;-63
2022/04/09 04:47:56;;;;;;;10.15;2.38;;;3.70;99.90;;;;;;5110752;28;20039;-64
2022/04/09 04:50:22;;;;;;;8.80;1.80;;;3.60;99.90;;;;;;5093341;28;20105;-63
2022/04/09 04:52:48;;;;;;;9.77;2.85;;;3.60;99.90;;;;;;5111073;28;20051;-64
2022/04/09 04:55:14;;;;;;;10.77;2.42;;;3.60;99.90;;;;;;5092664;28;20489;-64
2022/04/09 04:57:44;;;;;;;11.52;2.60;;;3.60;99.90;;;;;;5093003;28;20063;-65
2022/04/09 05:00:11;;;;;;;15.30;2.38;;;3.60;99.90;;;;;;5110669;28;20063;-65
2022/04/09 05:02:37;;;;;;;6.38;2.20;;;3.60;99.90;;;;;;5092848;28;20106;-65
2022/04/09 05:05:04;;;;;;;16.48;2.70;;;3.60;99.90;;;;;;5092527;28;20075;-66
2022/04/09 05:08:02;;;;;;;12.88;2.67;;;3.50;99.90;;;;;;5111264;28;20044;-65
2022/04/09 05:10:28;;;;;;;8.80;2.03;;;3.60;99.90;;;;;;5055063;28;20055;-65
2022/04/09 05:12:54;;;;;;;7.88;2.17;;;3.50;99.90;;;;;;5110728;28;20058;-70
2022/04/09 05:15:20;;;;;;;9.65;2.28;;;3.60;99.90;;;;;;5111015;28;20051;-65
2022/04/09 05:17:46;;;;;;;9.65;2.38;;;3.60;99.90;;;;;;5092748;28;20055;-64
2022/04/09 05:20:14;;;;;;;16.40;2.75;;;3.60;99.90;;;;;;5110613;28;20039;-65
2022/04/09 05:22:43;;;;;;;11.48;2.90;;;3.70;99.90;;;;;;5092606;28;20086;-68
2022/04/09 05:25:10;;;;;;;12.52;2.58;;;3.70;99.90;;;;;;5110663;28;20047;-65
2022/04/09 05:27:37;;;;;;;7.72;2.58;;;3.70;99.90;;;;;;5094598;28;20059;-64
2022/04/09 05:30:05;;;;;;;8.07;2.30;;;3.70;99.90;;;;;;5114444;28;20135;-64
2022/04/09 05:32:31;;;;;;;10.38;2.35;;;3.70;99.90;;;;;;5114665;28;20050;-64
2022/04/09 05:34:57;;;;;;;8.57;2.50;;;3.90;99.90;;;;;;5113948;28;20044;-69
2022/04/09 05:37:23;;;;;;;9.15;2.03;;;3.80;99.90;;;;;;5079581;28;20048;-64
2022/04/09 05:39:48;;;;;;;11.32;2.20;;;3.90;99.90;;;;;;5114685;28;20079;-66
2022/04/09 05:42:14;;;;;;;12.88;2.72;;;4.30;99.90;;;;;;5096218;28;20044;-65
2022/04/09 05:44:40;;;;;;;9.80;2.47;;;4.00;99.90;;;;;;5096202;28;20046;-64
2022/04/09 05:47:06;;;;;;;12.35;2.70;;;4.00;99.90;;;;;;5113951;28;20402;-64
2022/04/09 05:49:32;;;;;;;7.55;2.28;;;4.00;99.90;;;;;;5096052;28;20051;-66
2022/04/09 05:51:58;;;;;;;8.07;1.92;;;4.00;99.90;;;;;;5079083;28;20055;-72
2022/04/09 05:54:24;;;;;;;10.82;2.58;;;4.20;99.90;;;;;;5095853;28;20108;-65
2022/04/09 05:56:51;;;;;;;9.48;2.30;;;4.10;99.90;;;;;;5114121;28;20396;-63
2022/04/09 05:59:16;;;;;;;7.15;1.98;;;4.20;99.90;;;;;;5078528;28;20062;-66
2022/04/09 06:01:43;;;;;;;8.70;2.10;;;4.40;99.90;;;;;;5114021;28;20048;-65
2022/04/09 06:04:09;;;;;;;8.75;2.55;;;5.00;99.90;;;;;;5113680;28;20185;-65
2022/04/09 06:06:37;;;;;;;6.88;1.88;;;5.90;99.90;;;;;;5114149;28;20044;-65
2022/04/09 06:09:04;;;;;;;4.82;1.58;;;6.50;99.90;;;;;;5113203;28;20477;-64
2022/04/09 06:11:30;;;;;;;6.05;1.88;;;6.80;99.90;;;;;;5113699;28;20040;-64
2022/04/09 06:13:55;;;;;;;12.23;1.98;;;6.70;99.90;;;;;;5095578;28;20047;-64
2022/04/09 06:16:22;;;;;;;6.90;2.00;;;6.60;99.90;;;;;;5094973;28;20040;-64
2022/04/09 06:18:48;;;;;;;4.45;1.70;;;6.30;99.90;;;;;;5095722;28;20059;-67
2022/04/09 06:21:14;;;;;;;9.38;2.38;;;6.00;99.90;;;;;;5078008;28;20130;-64
2022/04/09 06:23:40;;;;;;;7.72;1.65;;;5.70;99.90;;;;;;5095659;28;20155;-64
2022/04/09 06:26:07;;;;;;;7.53;1.77;;;5.50;99.90;;;;;;5113263;28;20127;-65
2022/04/09 06:28:34;;;;;;;7.72;2.10;;;5.30;99.90;;;;;;5113739;28;20095;-65
2022/04/09 06:31:00;;;;;;;11.70;2.28;;;5.30;99.90;;;;;;5078848;28;20393;-65
2022/04/09 06:33:25;;;;;;;13.50;2.42;;;5.30;99.90;;;;;;5095050;28;20047;-64
2022/04/09 06:35:51;;;;;;;12.82;2.22;;;5.40;99.90;;;;;;5095377;28;20048;-65
2022/04/09 06:38:17;;;;;;;10.85;2.28;;;6.10;99.90;;;;;;5112059;28;20059;-64
2022/04/09 06:40:43;;;;;;;6.82;2.05;;;7.10;99.90;;;;;;5113421;28;20440;-66
2022/04/09 06:43:09;;;;;;;10.85;2.38;;;8.10;99.90;;;;;;5112992;28;20113;-66
2022/04/09 06:45:34;;;;;;;9.15;2.30;;;8.50;99.90;;;;;;5095257;28;20415;-64
2022/04/09 06:48:00;;;;;;;10.75;2.75;;;8.30;99.90;;;;;;5113098;28;20047;-65
2022/04/09 06:50:28;;;;;;;8.50;2.20;;;7.80;99.90;;;;;;5077205;28;20042;-65
2022/04/09 06:52:54;;;;;;;13.35;2.88;;;7.40;99.90;;;;;;5094790;28;20044;-66
2022/04/09 06:55:20;;;;;;;9.65;2.58;;;7.00;99.90;;;;;;5077783;28;20503;-65
2022/04/09 06:57:46;;;;;;;12.80;2.63;;;6.70;99.90;;;;;;5094570;28;20050;-66
2022/04/09 07:00:14;;;;;;;9.15;2.30;;;6.50;99.90;;;;;;5094547;28;20044;-67
2022/04/09 07:02:40;;;;;;;10.30;2.60;;;6.30;99.90;;;;;;5094495;28;20534;-64
2022/04/09 07:05:07;;;;;;;10.20;2.35;;;6.60;99.90;;;;;;5094670;28;20446;-70
2022/04/09 07:07:33;;;;;;;9.32;2.92;;;7.10;99.90;;;;;;5077778;28;20233;-64
2022/04/09 07:10:08;;;;;;;11.88;2.53;;;7.80;99.90;;;;;;5112787;28;20473;-64
2022/04/09 07:12:34;;;;;;;18.25;3.30;;;8.30;99.90;;;;;;5112508;28;20446;-66
2022/04/09 07:15:01;;;;;;;14.90;2.65;;;8.10;99.90;;;;;;5112544;28;20052;-64
2022/04/09 07:17:26;;;;;;;15.48;2.30;;;7.70;99.90;;;;;;5093579;28;20048;-65
2022/04/09 07:20:00;;;;;;;10.02;2.38;;;7.40;99.90;;;;;;5112730;28;20120;-67
2022/04/09 07:22:26;;;;;;;11.38;2.50;;;7.10;99.90;;;;;;5094163;28;20088;-65
2022/04/09 07:24:53;;;;;;;9.02;2.70;;;6.90;99.90;;;;;;5112377;28;20094;-65
2022/04/09 07:27:20;;;;;;;16.85;2.90;;;7.00;99.90;;;;;;5111722;28;20139;-64
2022/04/09 07:29:46;;;;;;;10.35;2.53;;;7.70;99.90;;;;;;5077318;28;20072;-65
2022/04/09 07:32:12;;;;;;;9.77;2.40;;;8.60;99.90;;;;;;5111971;28;20094;-65
2022/04/09 07:34:38;;;;;;;10.90;2.72;;;9.70;99.90;;;;;;5094136;28;20091;-64
2022/04/09 07:37:04;;;;;;;8.68;1.85;;;10.50;99.90;;;;;;5093934;28;20050;-64
2022/04/09 07:39:30;;;;;;;8.18;1.98;;;10.40;99.90;;;;;;5111647;28;20099;-67
2022/04/09 07:41:56;;;;;;;6.43;2.00;;;10.60;99.90;;;;;;5094430;28;20082;-63
2022/04/09 07:44:23;;;;;;;9.95;2.13;;;10.30;99.90;;;;;;5111823;28;20075;-65
2022/04/09 07:46:52;;;;;;;8.80;1.98;;;10.50;99.90;;;;;;5094151;28;20044;-63
2022/04/09 07:49:17;;;;;;;12.20;2.47;;;11.40;99.90;;;;;;5111447;28;20099;-62
2022/04/09 07:51:43;;;;;;;9.93;2.45;;;12.20;99.90;;;;;;5093739;28;20043;-63
2022/04/09 07:54:09;;;;;;;9.07;2.33;;;12.60;99.90;;;;;;5112099;28;20047;-64
2022/04/09 07:56:34;;;;;;;8.68;2.80;;;12.90;99.90;;;;;;5111516;28;20520;-64
2022/04/09 07:59:00;;;;;;;8.38;2.15;;;13.00;99.90;;;;;;5093907;28;20047;-64
2022/04/09 08:01:26;;;;;;;7.07;2.05;;;13.50;99.90;;;;;;5093696;28;20047;-64
2022/04/09 08:03:51;;;;;;;9.35;2.40;;;13.70;99.90;;;;;;5093777;28;20043;-65
2022/04/09 08:06:17;;;;;;;11.15;2.53;;;13.90;99.90;;;;;;5111337;28;20143;-64
2022/04/09 08:08:43;;;;;;;8.65;2.03;;;14.30;99.90;;;;;;5093821;28;20055;-63
2022/04/09 08:11:10;;;;;;;12.23;2.47;;;14.30;99.90;;;;;;5111749;28;20051;-63
2022/04/09 08:13:36;;;;;;;12.65;2.85;;;14.00;99.90;;;;;;5093338;28;20047;-63
2022/04/09 08:16:02;;;;;;;5.78;1.80;;;13.20;99.90;;;;;;5093184;28;20050;-64
2022/04/09 08:18:27;;;;;;;8.55;2.08;;;12.40;99.90;;;;;;5111391;28;20077;-64
2022/04/09 08:20:53;;;;;;;10.13;2.55;;;12.30;99.90;;;;;;5093928;28;20418;-63
2022/04/09 08:23:19;;;;;;;10.45;2.40;;;12.60;99.90;;;;;;5110946;28;20035;-64
2022/04/09 08:25:44;;;;;;;9.55;2.13;;;13.10;99.90;;;;;;5093482;28;20142;-65
2022/04/09 08:28:10;;;;;;;13.73;2.47;;;13.60;99.90;;;;;;5093096;28;20057;-64
2022/04/09 08:30:36;;;;;;;9.98;2.22;;;13.70;99.90;;;;;;5093046;28;20043;-63
2022/04/09 08:33:05;;;;;;;10.48;2.33;;;13.60;99.90;;;;;;5111314;28;20050;-63
2022/04/09 08:35:31;;;;;;;9.43;2.20;;;12.80;99.90;;;;;;5110751;28;20062;-64
2022/04/09 08:37:58;;;;;;;9.40;2.22;;;12.20;99.90;;;;;;5111603;28;20043;-64
2022/04/09 08:40:25;;;;;;;10.27;2.42;;;11.80;99.90;;;;;;5111087;28;20051;-63
2022/04/09 08:42:50;;;;;;;11.50;2.45;;;11.70;99.90;;;;;;5111501;28;20047;-63
2022/04/09 08:45:17;;;;;;;7.00;2.20;;;11.90;99.90;;;;;;5111513;28;20147;-63
2022/04/09 08:47:44;;;;;;;9.00;2.55;;;11.60;99.90;;;;;;5092896;28;20124;-64
2022/04/09 08:50:14;;;;;;;9.15;2.65;;;11.30;99.90;;;;;;5093248;28;20393;-63
2022/04/09 08:52:47;;;;;;;11.88;2.78;;;11.00;99.90;;;;;;5111023;28;20051;-64
2022/04/09 08:55:13;;;;;;;7.20;2.00;;;10.70;99.90;;;;;;5111457;28;20040;-64
2022/04/09 08:57:40;;;;;;;4.75;1.50;;;10.20;99.90;;;;;;5110742;28;20101;-63
2022/04/09 09:00:10;;;;;;;5.20;1.30;;;9.60;99.90;;;;;;5111206;28;20074;-62
2022/04/09 09:02:37;;;;;;;3.67;1.15;;;9.00;99.90;;;;;;5095370;28;20052;-64
2022/04/09 09:05:04;;;;;;;2.72;1.08;;;8.50;99.90;;;;;;5115358;28;20043;-63
2022/04/09 09:07:30;;;;;;;2.03;0.95;;;8.20;99.90;;;;;;5096779;28;20048;-63
2022/04/09 09:10:15;;;;;;;6.60;1.30;;;7.90;99.90;;;;;;5115288;28;20107;-63
2022/04/09 09:12:41;;;;;;;4.55;0.93;;;7.70;99.90;;;;;;5096751;28;20093;-64
2022/04/09 09:15:07;;;;;;;3.95;1.25;;;7.60;99.90;;;;;;5097083;28;20051;-64
2022/04/09 09:17:37;;;;;;;5.93;1.10;;;8.40;99.90;;;;;;5096516;28;20035;-64
2022/04/09 09:20:12;;;;;;;3.63;1.00;;;9.60;99.90;;;;;;5080027;28;20112;-65
2022/04/09 09:22:42;;;;;;;1.90;0.90;;;11.00;99.90;;;;;;5114537;28;20039;-65
2022/04/09 09:25:09;;;;;;;4.43;1.30;;;12.00;99.90;;;;;;5115295;28;20452;-64
2022/04/09 09:27:36;;;;;;;3.47;1.10;;;12.70;99.90;;;;;;5092725;28;20079;-65
2022/04/09 09:30:07;;;;;;;3.92;1.20;;;13.30;99.90;;;;;;5094445;28;20055;-63
2022/04/09 09:32:34;;;;;;;5.53;1.20;;;13.00;99.90;;;;;;5094001;28;20051;-63
2022/04/09 09:34:59;;;;;;;6.13;1.20;;;12.70;99.90;;;;;;5094330;28;20163;-64
2022/04/09 09:37:28;;;;;;;9.02;1.92;;;12.60;99.90;;;;;;5076184;28;20083;-70
2022/04/09 09:39:54;;;;;;;6.40;1.80;;;12.30;99.90;;;;;;5093447;28;20083;-65
2022/04/09 09:42:28;;;;;;;8.65;1.90;;;12.30;99.90;;;;;;5094390;28;20136;-63
2022/04/09 09:44:54;;;;;;;8.23;2.40;;;12.20;99.90;;;;;;5094472;28;20051;-64
2022/04/09 09:47:20;;;;;;;7.53;2.20;;;11.80;99.90;;;;;;5094339;28;20051;-63
2022/04/09 09:50:03;;;;;;;7.43;1.63;;;10.90;99.90;;;;;;5093683;28;20110;-62
2022/04/09 09:52:36;;;;;;;6.63;1.70;;;10.10;99.90;;;;;;5092237;28;20162;-71
2022/04/09 09:55:10;;;;;;;7.45;1.95;;;9.50;99.90;;;;;;5094211;28;20044;-64
2022/04/09 09:57:38;;;;;;;3.50;1.10;;;8.90;99.90;;;;;;5093313;28;20044;-62
2022/04/09 10:00:11;;;;;;;2.30;0.90;;;8.60;99.90;;;;;;5094113;28;20063;-65
2022/04/09 10:02:38;;;;;;;1.85;0.60;;;8.50;99.90;;;;;;5093464;28;20119;-64
2022/04/09 10:05:05;;;;;;;2.35;0.70;;;8.50;99.90;;;;;;5092487;28;20091;-64
2022/04/09 10:07:31;;;;;;;0.63;0.30;;;8.50;99.90;;;;;;5059093;28;20457;-70
2022/04/09 10:10:02;;;;;;;1.40;0.70;;;8.50;99.90;;;;;;5092781;28;20090;-63
2022/04/09 10:12:28;;;;;;;1.60;0.50;;;8.60;99.90;;;;;;5093663;28;20056;-63
2022/04/09 10:14:59;;;;;;;1.23;0.68;;;8.60;99.90;;;;;;5091926;28;20043;-62
2022/04/09 10:17:26;;;;;;;1.45;0.80;;;8.70;99.90;;;;;;5073946;28;20147;-67
2022/04/09 10:20:01;;;;;;;2.08;1.00;;;8.80;99.90;;;;;;5092599;28;20036;-63
2022/04/09 10:22:42;;;;;;;2.88;0.90;;;9.00;99.90;;;;;;5092086;28;20043;-63
2022/04/09 10:25:08;;;;;;;4.97;1.23;;;9.20;99.90;;;;;;5093377;28;20456;-64
2022/04/09 10:27:38;;;;;;;2.15;0.93;;;9.40;99.90;;;;;;5101107;28;20447;-69
2022/04/09 10:30:21;;;;;;;3.95;1.45;;;9.70;99.90;;;;;;5113902;28;20091;-63
2022/04/09 10:32:55;;;;;;;3.35;1.20;;;9.80;99.90;;;;;;5113050;28;20051;-63
2022/04/09 10:35:40;;;;;;;7.80;1.55;;;9.80;99.90;;;;;;5113686;28;20087;-63
2022/04/09 10:38:14;;;;;;;5.60;1.02;;;9.90;99.90;;;;;;5113752;28;20131;-63
2022/04/09 10:40:43;;;;;;;9.50;1.55;;;10.10;99.90;;;;;;5112952;28;20147;-64
2022/04/09 10:43:10;;;;;;;5.13;1.25;;;10.00;99.90;;;;;;5113203;28;20104;-64
2022/04/09 10:46:00;;;;;;;9.10;1.70;;;10.10;99.90;;;;;;5095091;28;20065;-68
2022/04/09 10:48:34;;;;;;;3.00;1.10;;;10.10;99.90;;;;;;5113354;28;20130;-62
2022/04/09 10:51:02;;;;;;;3.88;1.10;;;9.80;99.90;;;;;;5094813;28;20442;-65
2022/04/09 10:53:30;;;;;;;3.42;1.30;;;9.80;99.90;;;;;;5113130;28;20059;-67
2022/04/09 10:56:24;;;;;;;4.00;1.23;;;9.80;99.90;;;;;;5112389;28;20310;-63
2022/04/09 10:59:13;;;;;;;3.30;1.20;;;9.70;99.90;;;;;;5112585;28;20402;-63
2022/04/09 11:01:48;;;;;;;3.83;1.10;;;9.90;99.90;;;;;;5099574;28;20064;-69
2022/04/09 11:07:18;;;;;;;5.47;1.70;;;10.00;99.90;;;;;;5112565;28;20255;-62
2022/04/09 11:09:49;;;;;;;6.68;1.48;;;10.10;99.90;;;;;;5112630;28;20048;-63
2022/04/09 11:12:30;;;;;;;7.25;1.90;;;10.20;99.90;;;;;;5112737;28;20050;-63
2022/04/09 11:15:22;;;;;;;6.20;1.58;;;10.30;99.90;;;;;;5094259;28;20546;-65
2022/04/09 11:17:47;;;;;;;9.52;2.17;;;10.30;99.90;;;;;;5088968;28;20134;-62
2022/04/09 11:20:18;;;;;;;6.82;2.22;;;10.40;99.90;;;;;;5094543;28;20154;-63
2022/04/09 11:22:48;;;;;;;6.93;1.70;;;10.50;99.90;;;;;;5112202;28;20047;-63
2022/04/09 11:25:18;;;;;;;8.55;1.98;;;10.50;99.90;;;;;;5111656;28;20454;-65
2022/04/09 11:27:45;;;;;;;7.07;1.73;;;10.30;99.90;;;;;;5111270;28;20408;-64
2022/04/09 11:30:11;;;;;;;8.00;2.10;;;10.10;99.90;;;;;;5093477;28;20127;-64
2022/04/09 11:32:37;;;;;;;8.15;2.03;;;10.00;99.90;;;;;;5110835;28;20047;-64
2022/04/09 11:35:08;;;;;;;10.15;2.22;;;9.90;99.90;;;;;;5093072;28;20504;-65
2022/04/09 11:37:42;;;;;;;7.68;1.90;;;9.80;99.90;;;;;;5112194;28;20046;-64
2022/04/09 11:40:10;;;;;;;7.85;2.05;;;9.60;99.90;;;;;;5112099;28;20039;-62
2022/04/09 11:42:55;;;;;;;8.43;2.20;;;9.60;99.90;;;;;;5094252;28;20404;-64
2022/04/09 11:45:31;;;;;;;8.35;2.00;;;9.50;99.90;;;;;;5093911;28;20058;-64
2022/04/09 11:48:02;;;;;;;8.80;2.17;;;9.80;99.90;;;;;;5111612;28;20046;-66
2022/04/09 11:50:39;;;;;;;7.55;2.08;;;9.60;99.90;;;;;;5112005;28;20100;-64
2022/04/09 11:53:16;;;;;;;10.80;2.08;;;9.90;99.90;;;;;;5111777;28;20361;-64
2022/04/09 11:55:46;;;;;;;6.60;2.00;;;9.70;99.90;;;;;;5112117;28;20047;-64
2022/04/09 11:58:14;;;;;;;7.10;2.10;;;9.70;99.90;;;;;;5094363;28;20074;-63
2022/04/09 12:00:42;;;;;;;7.97;2.00;;;9.60;99.90;;;;;;5110422;28;20122;-64
2022/04/09 12:03:09;;;;;;;9.23;2.10;;;9.50;99.90;;;;;;5092275;28;20051;-66
2022/04/09 12:05:39;;;;;;;6.38;1.90;;;9.50;99.90;;;;;;5111196;28;20076;-64
2022/04/09 12:08:16;;;;;;;9.38;1.83;;;9.60;99.90;;;;;;5111025;28;20059;-63
2022/04/09 12:10:58;;;;;;;6.45;2.22;;;9.80;99.90;;;;;;5111244;28;20576;-65
2022/04/09 12:13:27;;;;;;;11.50;2.67;;;9.80;99.90;;;;;;5111011;28;20142;-62
2022/04/09 12:15:54;;;;;;;5.50;1.77;;;9.80;99.90;;;;;;5092452;28;20126;-65
2022/04/09 12:18:28;;;;;;;8.25;1.90;;;9.70;99.90;;;;;;5111334;28;20050;-64
2022/04/09 12:20:55;;;;;;;6.72;1.52;;;9.80;99.90;;;;;;5110197;28;20048;-64
2022/04/09 12:23:33;;;;;;;7.88;1.75;;;9.90;99.90;;;;;;5092893;28;20039;-64
2022/04/09 12:26:00;;;;;;;9.43;2.22;;;9.90;99.90;;;;;;5110020;28;20082;-64
2022/04/09 12:28:32;;;;;;;5.40;1.88;;;10.10;99.90;;;;;;5092373;28;20056;-64
2022/04/09 12:31:00;;;;;;;6.95;2.10;;;10.00;99.90;;;;;;5110093;28;20083;-64
2022/04/09 12:33:26;;;;;;;8.38;1.83;;;9.90;99.90;;;;;;5110767;28;20047;-64
2022/04/09 12:36:05;;;;;;;4.10;1.50;;;9.70;99.90;;;;;;5109769;28;20066;-66
2022/04/09 12:38:41;;;;;;;7.63;2.08;;;9.80;99.90;;;;;;5091933;28;20039;-66
2022/04/09 12:41:08;;;;;;;5.65;1.90;;;9.70;99.90;;;;;;5110190;28;20058;-66
2022/04/09 12:43:41;;;;;;;11.18;1.80;;;9.50;99.90;;;;;;5075582;28;20048;-65
2022/04/09 12:46:13;;;;;;;7.43;1.65;;;9.30;99.90;;;;;;5075216;28;20576;-63
2022/04/09 12:48:46;;;;;;;7.72;2.03;;;9.40;99.90;;;;;;5110726;28;20055;-64
2022/04/09 12:51:14;;;;;;;7.95;2.22;;;9.50;99.90;;;;;;5110149;28;20135;-66
2022/04/09 12:53:42;;;;;;;7.82;2.03;;;9.60;99.90;;;;;;5109382;28;20040;-64
2022/04/09 12:56:09;;;;;;;6.70;1.80;;;9.60;99.90;;;;;;5109575;28;20040;-66
2022/04/09 12:58:36;;;;;;;9.68;1.70;;;9.90;99.90;;;;;;5092867;28;20094;-64
2022/04/09 13:01:03;;;;;;;8.70;1.75;;;9.90;99.90;;;;;;5110763;28;20051;-64